sensor_id;sensor_type;location;lat;lon;timestamp;P1;durP1;ratioP1;P2;durP2;ratioP2
21458;SDS011;10891;49.350;19.386;2022-08-24T00:00:14;23.83;;;15.82;;
21458;SDS011;10891;49.350;19.386;2022-08-24T00:02:44;27.67;;;16.75;;
21458;SDS011;10891;49.350;19.386;2022-08-24T00:05:11;23.35;;;15.88;;
21458;SDS011;10891;49.350;19.386;2022-08-24T00:07:39;31.73;;;17.88;;
21458;SDS011;10891;49.350;19.386;2022-08-24T00:10:07;34.38;;;18.17;;
21458;SDS011;10891;49.350;19.386;2022-08-24T00:12:35;28.38;;;15.93;;
21458;SDS011;10891;49.350;19.386;2022-08-24T00:15:04;27.33;;;17.20;;
21458;SDS011;10891;49.350;19.386;2022-08-24T00:17:32;27.85;;;18.05;;
21458;SDS011;10891;49.350;19.386;2022-08-24T00:20:02;33.53;;;18.75;;
21458;SDS011;10891;49.350;19.386;2022-08-24T00:22:29;30.63;;;18.98;;
21458;SDS011;10891;49.350;19.386;2022-08-24T00:24:57;28.90;;;17.95;;
21458;SDS011;10891;49.350;19.386;2022-08-24T00:27:24;31.50;;;16.38;;
21458;SDS011;10891;49.350;19.386;2022-08-24T00:29:51;27.95;;;16.77;;
21458;SDS011;10891;49.350;19.386;2022-08-24T00:32:19;23.45;;;16.23;;
21458;SDS011;10891;49.350;19.386;2022-08-24T00:34:47;28.55;;;16.88;;
21458;SDS011;10891;49.350;19.386;2022-08-24T00:37:15;24.48;;;16.55;;
21458;SDS011;10891;49.350;19.386;2022-08-24T00:39:42;29.80;;;17.17;;
21458;SDS011;10891;49.350;19.386;2022-08-24T00:42:10;21.13;;;15.10;;
21458;SDS011;10891;49.350;19.386;2022-08-24T00:44:37;22.10;;;15.25;;
21458;SDS011;10891;49.350;19.386;2022-08-24T00:47:06;25.92;;;16.27;;
21458;SDS011;10891;49.350;19.386;2022-08-24T00:49:38;28.38;;;15.63;;
21458;SDS011;10891;49.350;19.386;2022-08-24T00:52:08;25.27;;;15.05;;
21458;SDS011;10891;49.350;19.386;2022-08-24T00:54:39;22.92;;;15.23;;
21458;SDS011;10891;49.350;19.386;2022-08-24T00:57:08;26.17;;;15.50;;
21458;SDS011;10891;49.350;19.386;2022-08-24T00:59:37;23.63;;;15.18;;
21458;SDS011;10891;49.350;19.386;2022-08-24T01:02:06;21.48;;;14.85;;
21458;SDS011;10891;49.350;19.386;2022-08-24T01:04:37;25.02;;;15.02;;
21458;SDS011;10891;49.350;19.386;2022-08-24T01:07:06;22.45;;;15.20;;
21458;SDS011;10891;49.350;19.386;2022-08-24T01:09:33;28.40;;;16.52;;
21458;SDS011;10891;49.350;19.386;2022-08-24T01:12:02;26.50;;;15.18;;
21458;SDS011;10891;49.350;19.386;2022-08-24T01:14:30;25.13;;;16.13;;
21458;SDS011;10891;49.350;19.386;2022-08-24T01:16:57;26.13;;;16.75;;
21458;SDS011;10891;49.350;19.386;2022-08-24T01:19:43;26.55;;;16.48;;
21458;SDS011;10891;49.350;19.386;2022-08-24T01:22:15;27.92;;;17.00;;
21458;SDS011;10891;49.350;19.386;2022-08-24T01:24:46;24.52;;;17.35;;
21458;SDS011;10891;49.350;19.386;2022-08-24T01:27:14;28.55;;;16.75;;
21458;SDS011;10891;49.350;19.386;2022-08-24T01:29:42;35.35;;;16.98;;
21458;SDS011;10891;49.350;19.386;2022-08-24T01:32:10;28.55;;;18.23;;
21458;SDS011;10891;49.350;19.386;2022-08-24T01:34:37;28.88;;;17.67;;
21458;SDS011;10891;49.350;19.386;2022-08-24T01:37:05;25.90;;;16.85;;
21458;SDS011;10891;49.350;19.386;2022-08-24T01:39:33;24.27;;;17.50;;
21458;SDS011;10891;49.350;19.386;2022-08-24T01:42:03;25.92;;;17.38;;
21458;SDS011;10891;49.350;19.386;2022-08-24T01:44:31;28.10;;;17.55;;
21458;SDS011;10891;49.350;19.386;2022-08-24T01:47:00;26.20;;;16.63;;
21458;SDS011;10891;49.350;19.386;2022-08-24T01:49:29;26.08;;;16.58;;
21458;SDS011;10891;49.350;19.386;2022-08-24T01:51:57;25.70;;;15.93;;
21458;SDS011;10891;49.350;19.386;2022-08-24T01:54:24;24.05;;;15.60;;
21458;SDS011;10891;49.350;19.386;2022-08-24T01:56:52;27.00;;;15.88;;
21458;SDS011;10891;49.350;19.386;2022-08-24T01:59:21;21.83;;;16.10;;
21458;SDS011;10891;49.350;19.386;2022-08-24T02:01:51;25.73;;;16.55;;
21458;SDS011;10891;49.350;19.386;2022-08-24T02:04:19;28.10;;;15.73;;
21458;SDS011;10891;49.350;19.386;2022-08-24T02:06:47;25.25;;;16.33;;
21458;SDS011;10891;49.350;19.386;2022-08-24T02:09:14;24.27;;;15.40;;
21458;SDS011;10891;49.350;19.386;2022-08-24T02:11:41;28.25;;;16.20;;
21458;SDS011;10891;49.350;19.386;2022-08-24T02:14:09;27.00;;;15.98;;
21458;SDS011;10891;49.350;19.386;2022-08-24T02:16:37;27.77;;;16.48;;
21458;SDS011;10891;49.350;19.386;2022-08-24T02:19:04;24.60;;;16.50;;
21458;SDS011;10891;49.350;19.386;2022-08-24T02:21:32;27.77;;;16.67;;
21458;SDS011;10891;49.350;19.386;2022-08-24T02:24:00;25.40;;;16.17;;
21458;SDS011;10891;49.350;19.386;2022-08-24T02:26:27;31.40;;;16.17;;
21458;SDS011;10891;49.350;19.386;2022-08-24T02:28:54;26.73;;;16.67;;
21458;SDS011;10891;49.350;19.386;2022-08-24T02:31:21;26.35;;;17.30;;
21458;SDS011;10891;49.350;19.386;2022-08-24T02:33:50;26.10;;;15.95;;
21458;SDS011;10891;49.350;19.386;2022-08-24T02:36:17;24.45;;;16.17;;
21458;SDS011;10891;49.350;19.386;2022-08-24T02:38:45;30.85;;;17.30;;
21458;SDS011;10891;49.350;19.386;2022-08-24T02:41:12;26.40;;;17.13;;
21458;SDS011;10891;49.350;19.386;2022-08-24T02:43:39;30.10;;;17.25;;
21458;SDS011;10891;49.350;19.386;2022-08-24T02:46:06;33.65;;;20.13;;
21458;SDS011;10891;49.350;19.386;2022-08-24T02:48:33;44.53;;;24.05;;
21458;SDS011;10891;49.350;19.386;2022-08-24T02:51:02;45.33;;;24.33;;
21458;SDS011;10891;49.350;19.386;2022-08-24T02:53:29;49.60;;;26.92;;
21458;SDS011;10891;49.350;19.386;2022-08-24T02:55:57;53.72;;;24.85;;
21458;SDS011;10891;49.350;19.386;2022-08-24T02:58:24;46.95;;;23.80;;
21458;SDS011;10891;49.350;19.386;2022-08-24T03:00:51;42.88;;;22.75;;
21458;SDS011;10891;49.350;19.386;2022-08-24T03:03:18;33.92;;;20.73;;
21458;SDS011;10891;49.350;19.386;2022-08-24T03:05:46;34.92;;;21.73;;
21458;SDS011;10891;49.350;19.386;2022-08-24T03:08:14;40.25;;;21.00;;
21458;SDS011;10891;49.350;19.386;2022-08-24T03:10:42;35.72;;;21.90;;
21458;SDS011;10891;49.350;19.386;2022-08-24T03:13:09;33.80;;;20.05;;
21458;SDS011;10891;49.350;19.386;2022-08-24T03:15:37;38.67;;;20.52;;
21458;SDS011;10891;49.350;19.386;2022-08-24T03:18:04;38.65;;;20.15;;
21458;SDS011;10891;49.350;19.386;2022-08-24T03:20:31;34.92;;;20.23;;
21458;SDS011;10891;49.350;19.386;2022-08-24T03:22:59;36.10;;;19.98;;
21458;SDS011;10891;49.350;19.386;2022-08-24T03:25:28;36.97;;;20.02;;
21458;SDS011;10891;49.350;19.386;2022-08-24T03:27:55;36.85;;;21.52;;
21458;SDS011;10891;49.350;19.386;2022-08-24T03:30:22;34.38;;;21.17;;
21458;SDS011;10891;49.350;19.386;2022-08-24T03:32:50;37.03;;;21.30;;
21458;SDS011;10891;49.350;19.386;2022-08-24T03:35:17;36.92;;;21.75;;
21458;SDS011;10891;49.350;19.386;2022-08-24T03:37:46;37.00;;;21.30;;
21458;SDS011;10891;49.350;19.386;2022-08-24T03:40:13;37.38;;;22.38;;
21458;SDS011;10891;49.350;19.386;2022-08-24T03:42:42;32.95;;;19.90;;
21458;SDS011;10891;49.350;19.386;2022-08-24T03:45:10;35.33;;;21.88;;
21458;SDS011;10891;49.350;19.386;2022-08-24T03:47:37;36.03;;;21.02;;
21458;SDS011;10891;49.350;19.386;2022-08-24T03:50:05;43.67;;;22.33;;
21458;SDS011;10891;49.350;19.386;2022-08-24T03:52:32;34.20;;;20.50;;
21458;SDS011;10891;49.350;19.386;2022-08-24T03:55:00;37.10;;;21.77;;
21458;SDS011;10891;49.350;19.386;2022-08-24T03:57:27;36.65;;;21.52;;
21458;SDS011;10891;49.350;19.386;2022-08-24T03:59:56;38.33;;;22.23;;
21458;SDS011;10891;49.350;19.386;2022-08-24T04:02:24;38.40;;;21.58;;
21458;SDS011;10891;49.350;19.386;2022-08-24T04:04:51;39.08;;;22.52;;
21458;SDS011;10891;49.350;19.386;2022-08-24T04:07:18;45.33;;;23.88;;
21458;SDS011;10891;49.350;19.386;2022-08-24T04:09:46;36.10;;;23.17;;
21458;SDS011;10891;49.350;19.386;2022-08-24T04:12:13;36.53;;;21.67;;
21458;SDS011;10891;49.350;19.386;2022-08-24T04:14:40;31.92;;;20.13;;
21458;SDS011;10891;49.350;19.386;2022-08-24T04:17:10;32.72;;;20.42;;
21458;SDS011;10891;49.350;19.386;2022-08-24T04:19:37;34.15;;;20.52;;
21458;SDS011;10891;49.350;19.386;2022-08-24T04:22:21;31.17;;;18.67;;
21458;SDS011;10891;49.350;19.386;2022-08-24T04:24:49;35.17;;;19.58;;
21458;SDS011;10891;49.350;19.386;2022-08-24T04:27:16;38.97;;;21.40;;
21458;SDS011;10891;49.350;19.386;2022-08-24T04:29:43;36.55;;;20.75;;
21458;SDS011;10891;49.350;19.386;2022-08-24T04:32:12;33.20;;;21.00;;
21458;SDS011;10891;49.350;19.386;2022-08-24T04:34:40;38.40;;;21.58;;
21458;SDS011;10891;49.350;19.386;2022-08-24T04:37:08;36.53;;;20.08;;
21458;SDS011;10891;49.350;19.386;2022-08-24T04:39:35;40.70;;;20.77;;
21458;SDS011;10891;49.350;19.386;2022-08-24T04:42:03;35.75;;;20.63;;
21458;SDS011;10891;49.350;19.386;2022-08-24T04:44:30;37.17;;;22.77;;
21458;SDS011;10891;49.350;19.386;2022-08-24T04:46:57;43.53;;;23.27;;
21458;SDS011;10891;49.350;19.386;2022-08-24T04:49:27;40.92;;;23.35;;
21458;SDS011;10891;49.350;19.386;2022-08-24T04:51:54;50.83;;;26.52;;
21458;SDS011;10891;49.350;19.386;2022-08-24T04:54:22;49.95;;;26.08;;
21458;SDS011;10891;49.350;19.386;2022-08-24T04:56:50;60.95;;;28.35;;
21458;SDS011;10891;49.350;19.386;2022-08-24T04:59:17;60.08;;;26.30;;
21458;SDS011;10891;49.350;19.386;2022-08-24T05:01:44;68.50;;;27.70;;
21458;SDS011;10891;49.350;19.386;2022-08-24T05:04:12;57.75;;;28.00;;
21458;SDS011;10891;49.350;19.386;2022-08-24T05:06:41;57.85;;;28.23;;
21458;SDS011;10891;49.350;19.386;2022-08-24T05:09:08;59.33;;;27.92;;
21458;SDS011;10891;49.350;19.386;2022-08-24T05:11:36;61.72;;;27.75;;
21458;SDS011;10891;49.350;19.386;2022-08-24T05:14:05;62.05;;;28.15;;
21458;SDS011;10891;49.350;19.386;2022-08-24T05:16:32;58.90;;;26.25;;
21458;SDS011;10891;49.350;19.386;2022-08-24T05:19:02;51.35;;;25.75;;
21458;SDS011;10891;49.350;19.386;2022-08-24T05:21:31;58.72;;;27.17;;
21458;SDS011;10891;49.350;19.386;2022-08-24T05:24:00;55.78;;;27.05;;
21458;SDS011;10891;49.350;19.386;2022-08-24T05:26:27;55.13;;;28.73;;
21458;SDS011;10891;49.350;19.386;2022-08-24T05:28:55;57.65;;;28.38;;
21458;SDS011;10891;49.350;19.386;2022-08-24T05:31:24;60.00;;;28.02;;
21458;SDS011;10891;49.350;19.386;2022-08-24T05:33:51;68.97;;;28.17;;
21458;SDS011;10891;49.350;19.386;2022-08-24T05:47:53;73.18;;;30.50;;
21458;SDS011;10891;49.350;19.386;2022-08-24T05:50:20;72.90;;;29.38;;
21458;SDS011;10891;49.350;19.386;2022-08-24T05:52:47;66.78;;;28.75;;
21458;SDS011;10891;49.350;19.386;2022-08-24T05:55:14;60.33;;;29.52;;
21458;SDS011;10891;49.350;19.386;2022-08-24T05:57:41;61.33;;;27.52;;
21458;SDS011;10891;49.350;19.386;2022-08-24T06:00:10;60.72;;;28.02;;
21458;SDS011;10891;49.350;19.386;2022-08-24T06:02:38;60.03;;;28.63;;
21458;SDS011;10891;49.350;19.386;2022-08-24T06:05:06;63.10;;;30.05;;
21458;SDS011;10891;49.350;19.386;2022-08-24T06:07:34;71.07;;;30.42;;
21458;SDS011;10891;49.350;19.386;2022-08-24T06:10:01;66.07;;;32.20;;
21458;SDS011;10891;49.350;19.386;2022-08-24T06:12:29;63.70;;;33.58;;
21458;SDS011;10891;49.350;19.386;2022-08-24T06:14:56;64.03;;;33.00;;
21458;SDS011;10891;49.350;19.386;2022-08-24T06:17:23;69.55;;;35.00;;
21458;SDS011;10891;49.350;19.386;2022-08-24T06:19:50;69.60;;;32.70;;
21458;SDS011;10891;49.350;19.386;2022-08-24T06:22:18;54.40;;;29.40;;
21458;SDS011;10891;49.350;19.386;2022-08-24T06:24:45;50.92;;;27.08;;
21458;SDS011;10891;49.350;19.386;2022-08-24T06:27:30;48.45;;;25.73;;
21458;SDS011;10891;49.350;19.386;2022-08-24T06:29:57;62.20;;;34.60;;
21458;SDS011;10891;49.350;19.386;2022-08-24T06:32:25;53.60;;;33.58;;
21458;SDS011;10891;49.350;19.386;2022-08-24T06:34:54;50.33;;;27.83;;
21458;SDS011;10891;49.350;19.386;2022-08-24T06:37:24;55.13;;;27.25;;
21458;SDS011;10891;49.350;19.386;2022-08-24T06:39:52;49.80;;;27.95;;
21458;SDS011;10891;49.350;19.386;2022-08-24T06:42:19;55.28;;;27.45;;
21458;SDS011;10891;49.350;19.386;2022-08-24T06:44:48;49.85;;;29.08;;
21458;SDS011;10891;49.350;19.386;2022-08-24T06:47:15;59.47;;;29.15;;
21458;SDS011;10891;49.350;19.386;2022-08-24T06:49:42;55.22;;;29.73;;
21458;SDS011;10891;49.350;19.386;2022-08-24T06:52:10;70.53;;;36.38;;
21458;SDS011;10891;49.350;19.386;2022-08-24T06:54:38;50.83;;;27.77;;
21458;SDS011;10891;49.350;19.386;2022-08-24T06:57:05;60.40;;;28.33;;
21458;SDS011;10891;49.350;19.386;2022-08-24T06:59:32;57.15;;;27.25;;
21458;SDS011;10891;49.350;19.386;2022-08-24T07:01:59;51.90;;;27.55;;
21458;SDS011;10891;49.350;19.386;2022-08-24T07:04:27;49.92;;;25.70;;
21458;SDS011;10891;49.350;19.386;2022-08-24T07:06:54;56.08;;;26.90;;
21458;SDS011;10891;49.350;19.386;2022-08-24T07:09:21;53.83;;;27.90;;
21458;SDS011;10891;49.350;19.386;2022-08-24T07:11:50;63.08;;;29.48;;
21458;SDS011;10891;49.350;19.386;2022-08-24T07:14:17;63.45;;;29.95;;
21458;SDS011;10891;49.350;19.386;2022-08-24T07:16:45;60.00;;;29.08;;
21458;SDS011;10891;49.350;19.386;2022-08-24T07:19:13;58.63;;;28.17;;
21458;SDS011;10891;49.350;19.386;2022-08-24T07:21:40;49.60;;;25.40;;
21458;SDS011;10891;49.350;19.386;2022-08-24T07:24:07;56.33;;;27.52;;
21458;SDS011;10891;49.350;19.386;2022-08-24T07:26:34;51.88;;;28.00;;
21458;SDS011;10891;49.350;19.386;2022-08-24T07:29:05;58.03;;;27.27;;
21458;SDS011;10891;49.350;19.386;2022-08-24T07:31:37;53.97;;;27.10;;
21458;SDS011;10891;49.350;19.386;2022-08-24T07:34:06;54.28;;;26.10;;
21458;SDS011;10891;49.350;19.386;2022-08-24T07:36:34;55.95;;;26.77;;
21458;SDS011;10891;49.350;19.386;2022-08-24T07:39:04;44.45;;;24.77;;
21458;SDS011;10891;49.350;19.386;2022-08-24T07:41:36;58.70;;;27.92;;
21458;SDS011;10891;49.350;19.386;2022-08-24T07:44:05;51.15;;;24.73;;
21458;SDS011;10891;49.350;19.386;2022-08-24T07:46:32;41.67;;;22.73;;
21458;SDS011;10891;49.350;19.386;2022-08-24T07:48:59;45.38;;;24.42;;
21458;SDS011;10891;49.350;19.386;2022-08-24T07:51:26;48.55;;;25.05;;
21458;SDS011;10891;49.350;19.386;2022-08-24T07:53:54;46.90;;;24.85;;
21458;SDS011;10891;49.350;19.386;2022-08-24T07:56:21;46.95;;;24.90;;
21458;SDS011;10891;49.350;19.386;2022-08-24T07:58:48;50.10;;;25.55;;
21458;SDS011;10891;49.350;19.386;2022-08-24T08:01:16;44.10;;;23.88;;
21458;SDS011;10891;49.350;19.386;2022-08-24T08:03:45;50.67;;;23.88;;
21458;SDS011;10891;49.350;19.386;2022-08-24T08:06:12;58.45;;;24.13;;
21458;SDS011;10891;49.350;19.386;2022-08-24T08:08:41;48.72;;;19.60;;
21458;SDS011;10891;49.350;19.386;2022-08-24T08:11:09;54.00;;;23.25;;
21458;SDS011;10891;49.350;19.386;2022-08-24T08:13:37;44.28;;;19.58;;
21458;SDS011;10891;49.350;19.386;2022-08-24T08:16:04;39.28;;;18.35;;
21458;SDS011;10891;49.350;19.386;2022-08-24T08:18:33;32.65;;;18.40;;
21458;SDS011;10891;49.350;19.386;2022-08-24T08:21:00;33.95;;;17.30;;
21458;SDS011;10891;49.350;19.386;2022-08-24T08:23:28;35.10;;;18.38;;
21458;SDS011;10891;49.350;19.386;2022-08-24T08:26:13;27.50;;;16.92;;
21458;SDS011;10891;49.350;19.386;2022-08-24T08:28:42;33.85;;;18.90;;
21458;SDS011;10891;49.350;19.386;2022-08-24T08:31:09;30.38;;;17.10;;
21458;SDS011;10891;49.350;19.386;2022-08-24T08:33:38;35.42;;;17.05;;
21458;SDS011;10891;49.350;19.386;2022-08-24T08:36:06;31.63;;;15.93;;
21458;SDS011;10891;49.350;19.386;2022-08-24T08:38:35;32.10;;;16.08;;
21458;SDS011;10891;49.350;19.386;2022-08-24T08:41:08;30.30;;;15.73;;
21458;SDS011;10891;49.350;19.386;2022-08-24T08:43:52;20.38;;;13.65;;
21458;SDS011;10891;49.350;19.386;2022-08-24T08:46:27;26.92;;;14.35;;
21458;SDS011;10891;49.350;19.386;2022-08-24T08:49:09;22.83;;;12.80;;
21458;SDS011;10891;49.350;19.386;2022-08-24T08:55:02;26.02;;;13.05;;
21458;SDS011;10891;49.350;19.386;2022-08-24T08:57:38;27.42;;;12.52;;
21458;SDS011;10891;49.350;19.386;2022-08-24T09:00:16;22.35;;;11.75;;
21458;SDS011;10891;49.350;19.386;2022-08-24T09:06:13;26.95;;;13.23;;
21458;SDS011;10891;49.350;19.386;2022-08-24T09:11:52;20.83;;;12.25;;
21458;SDS011;10891;49.350;19.386;2022-08-24T09:14:32;21.08;;;12.18;;
21458;SDS011;10891;49.350;19.386;2022-08-24T09:17:24;26.70;;;12.85;;
21458;SDS011;10891;49.350;19.386;2022-08-24T09:20:03;30.08;;;12.00;;
21458;SDS011;10891;49.350;19.386;2022-08-24T09:22:46;28.65;;;11.90;;
21458;SDS011;10891;49.350;19.386;2022-08-24T09:25:21;25.35;;;11.77;;
21458;SDS011;10891;49.350;19.386;2022-08-24T09:27:58;26.45;;;11.95;;
21458;SDS011;10891;49.350;19.386;2022-08-24T09:30:43;22.25;;;11.10;;
21458;SDS011;10891;49.350;19.386;2022-08-24T09:33:30;31.52;;;13.15;;
21458;SDS011;10891;49.350;19.386;2022-08-24T09:36:05;26.10;;;12.32;;
21458;SDS011;10891;49.350;19.386;2022-08-24T09:38:48;28.70;;;11.18;;
21458;SDS011;10891;49.350;19.386;2022-08-24T09:41:31;26.45;;;10.52;;
21458;SDS011;10891;49.350;19.386;2022-08-24T09:44:27;25.98;;;10.32;;
21458;SDS011;10891;49.350;19.386;2022-08-24T09:47:17;23.52;;;10.80;;
21458;SDS011;10891;49.350;19.386;2022-08-24T09:50:13;28.98;;;8.40;;
21458;SDS011;10891;49.350;19.386;2022-08-24T09:56:02;25.75;;;10.50;;
21458;SDS011;10891;49.350;19.386;2022-08-24T09:58:43;23.85;;;10.25;;
21458;SDS011;10891;49.350;19.386;2022-08-24T10:01:23;19.23;;;10.75;;
21458;SDS011;10891;49.350;19.386;2022-08-24T10:06:49;28.30;;;10.70;;
21458;SDS011;10891;49.350;19.386;2022-08-24T10:12:24;22.65;;;9.27;;
21458;SDS011;10891;49.350;19.386;2022-08-24T10:15:01;25.00;;;10.55;;
21458;SDS011;10891;49.350;19.386;2022-08-24T10:17:34;24.70;;;10.07;;
21458;SDS011;10891;49.350;19.386;2022-08-24T10:20:16;22.80;;;9.65;;
21458;SDS011;10891;49.350;19.386;2022-08-24T10:22:54;20.80;;;10.95;;
21458;SDS011;10891;49.350;19.386;2022-08-24T10:25:33;20.63;;;9.55;;
21458;SDS011;10891;49.350;19.386;2022-08-24T10:28:11;32.92;;;10.07;;
21458;SDS011;10891;49.350;19.386;2022-08-24T10:31:01;26.15;;;10.10;;
21458;SDS011;10891;49.350;19.386;2022-08-24T10:33:31;21.38;;;8.88;;
21458;SDS011;10891;49.350;19.386;2022-08-24T10:36:14;26.90;;;10.48;;
21458;SDS011;10891;49.350;19.386;2022-08-24T10:38:56;22.08;;;10.02;;
21458;SDS011;10891;49.350;19.386;2022-08-24T10:42:08;29.08;;;10.52;;
21458;SDS011;10891;49.350;19.386;2022-08-24T10:45:08;23.70;;;9.57;;
21458;SDS011;10891;49.350;19.386;2022-08-24T10:47:53;26.10;;;9.57;;
21458;SDS011;10891;49.350;19.386;2022-08-24T10:50:39;28.00;;;10.70;;
21458;SDS011;10891;49.350;19.386;2022-08-24T10:53:22;24.20;;;9.82;;
21458;SDS011;10891;49.350;19.386;2022-08-24T10:55:56;20.88;;;9.80;;
21458;SDS011;10891;49.350;19.386;2022-08-24T10:58:45;31.67;;;10.77;;
21458;SDS011;10891;49.350;19.386;2022-08-24T11:01:19;23.50;;;10.82;;
21458;SDS011;10891;49.350;19.386;2022-08-24T11:03:53;23.42;;;10.07;;
21458;SDS011;10891;49.350;19.386;2022-08-24T11:06:27;30.63;;;10.30;;
21458;SDS011;10891;49.350;19.386;2022-08-24T11:08:58;28.17;;;11.77;;
21458;SDS011;10891;49.350;19.386;2022-08-24T11:11:29;25.77;;;11.27;;
21458;SDS011;10891;49.350;19.386;2022-08-24T11:13:59;29.17;;;11.88;;
21458;SDS011;10891;49.350;19.386;2022-08-24T11:16:31;20.88;;;10.55;;
21458;SDS011;10891;49.350;19.386;2022-08-24T11:19:00;31.98;;;11.32;;
21458;SDS011;10891;49.350;19.386;2022-08-24T11:21:37;25.40;;;10.77;;
21458;SDS011;10891;49.350;19.386;2022-08-24T11:24:10;25.35;;;10.60;;
21458;SDS011;10891;49.350;19.386;2022-08-24T11:26:49;29.25;;;12.13;;
21458;SDS011;10891;49.350;19.386;2022-08-24T11:29:18;28.55;;;11.38;;
21458;SDS011;10891;49.350;19.386;2022-08-24T11:31:48;28.35;;;13.18;;
21458;SDS011;10891;49.350;19.386;2022-08-24T11:34:18;25.50;;;12.15;;
21458;SDS011;10891;49.350;19.386;2022-08-24T11:36:56;28.27;;;12.90;;
21458;SDS011;10891;49.350;19.386;2022-08-24T11:39:25;25.65;;;12.48;;
21458;SDS011;10891;49.350;19.386;2022-08-24T11:41:57;32.38;;;11.98;;
21458;SDS011;10891;49.350;19.386;2022-08-24T11:44:35;27.63;;;12.43;;
21458;SDS011;10891;49.350;19.386;2022-08-24T11:50:06;33.75;;;13.35;;
21458;SDS011;10891;49.350;19.386;2022-08-24T11:52:45;36.00;;;15.30;;
21458;SDS011;10891;49.350;19.386;2022-08-24T11:55:21;35.25;;;12.73;;
21458;SDS011;10891;49.350;19.386;2022-08-24T11:57:56;28.05;;;13.05;;
21458;SDS011;10891;49.350;19.386;2022-08-24T12:00:32;33.65;;;11.68;;
21458;SDS011;10891;49.350;19.386;2022-08-24T12:03:09;30.92;;;12.23;;
21458;SDS011;10891;49.350;19.386;2022-08-24T12:05:49;32.42;;;13.05;;
21458;SDS011;10891;49.350;19.386;2022-08-24T12:08:22;31.48;;;12.60;;
21458;SDS011;10891;49.350;19.386;2022-08-24T12:10:59;27.92;;;12.38;;
21458;SDS011;10891;49.350;19.386;2022-08-24T12:13:42;32.95;;;13.20;;
21458;SDS011;10891;49.350;19.386;2022-08-24T12:16:15;27.92;;;11.40;;
21458;SDS011;10891;49.350;19.386;2022-08-24T12:18:49;23.48;;;10.65;;
21458;SDS011;10891;49.350;19.386;2022-08-24T12:21:21;28.38;;;11.02;;
21458;SDS011;10891;49.350;19.386;2022-08-24T12:23:52;32.17;;;10.70;;
21458;SDS011;10891;49.350;19.386;2022-08-24T12:26:26;34.13;;;11.68;;
21458;SDS011;10891;49.350;19.386;2022-08-24T12:28:58;36.90;;;10.63;;
21458;SDS011;10891;49.350;19.386;2022-08-24T12:31:32;35.15;;;11.27;;
21458;SDS011;10891;49.350;19.386;2022-08-24T12:34:09;34.10;;;12.27;;
21458;SDS011;10891;49.350;19.386;2022-08-24T12:36:51;33.47;;;11.50;;
21458;SDS011;10891;49.350;19.386;2022-08-24T12:39:25;32.08;;;10.27;;
21458;SDS011;10891;49.350;19.386;2022-08-24T12:41:57;35.67;;;10.95;;
21458;SDS011;10891;49.350;19.386;2022-08-24T12:44:37;42.85;;;12.00;;
21458;SDS011;10891;49.350;19.386;2022-08-24T12:47:10;36.75;;;12.02;;
21458;SDS011;10891;49.350;19.386;2022-08-24T12:49:45;37.00;;;10.57;;
21458;SDS011;10891;49.350;19.386;2022-08-24T12:52:20;43.58;;;11.48;;
21458;SDS011;10891;49.350;19.386;2022-08-24T12:55:17;36.70;;;10.25;;
21458;SDS011;10891;49.350;19.386;2022-08-24T12:58:04;45.03;;;11.27;;
21458;SDS011;10891;49.350;19.386;2022-08-24T13:00:43;29.40;;;10.02;;
21458;SDS011;10891;49.350;19.386;2022-08-24T13:03:22;38.17;;;10.75;;
21458;SDS011;10891;49.350;19.386;2022-08-24T13:05:54;37.15;;;10.32;;
21458;SDS011;10891;49.350;19.386;2022-08-24T13:08:31;37.13;;;10.38;;
21458;SDS011;10891;49.350;19.386;2022-08-24T13:11:04;28.67;;;9.50;;
21458;SDS011;10891;49.350;19.386;2022-08-24T13:13:40;32.47;;;9.77;;
21458;SDS011;10891;49.350;19.386;2022-08-24T13:16:09;36.70;;;9.32;;
21458;SDS011;10891;49.350;19.386;2022-08-24T13:18:47;45.17;;;10.27;;
21458;SDS011;10891;49.350;19.386;2022-08-24T13:21:40;37.67;;;9.45;;
21458;SDS011;10891;49.350;19.386;2022-08-24T13:30:16;37.10;;;10.05;;
21458;SDS011;10891;49.350;19.386;2022-08-24T13:32:54;36.30;;;11.57;;
21458;SDS011;10891;49.350;19.386;2022-08-24T13:35:34;48.45;;;10.85;;
21458;SDS011;10891;49.350;19.386;2022-08-24T13:38:29;45.92;;;12.25;;
21458;SDS011;10891;49.350;19.386;2022-08-24T13:41:10;30.48;;;8.95;;
21458;SDS011;10891;49.350;19.386;2022-08-24T13:43:44;34.70;;;9.77;;
21458;SDS011;10891;49.350;19.386;2022-08-24T13:46:19;51.67;;;11.18;;
21458;SDS011;10891;49.350;19.386;2022-08-24T13:48:54;45.38;;;10.77;;
21458;SDS011;10891;49.350;19.386;2022-08-24T13:51:28;51.38;;;12.35;;
21458;SDS011;10891;49.350;19.386;2022-08-24T13:54:07;36.15;;;9.70;;
21458;SDS011;10891;49.350;19.386;2022-08-24T13:56:45;55.08;;;11.55;;
21458;SDS011;10891;49.350;19.386;2022-08-24T13:59:50;51.63;;;11.07;;
21458;SDS011;10891;49.350;19.386;2022-08-24T14:02:28;52.10;;;10.80;;
21458;SDS011;10891;49.350;19.386;2022-08-24T14:05:06;47.65;;;12.15;;
21458;SDS011;10891;49.350;19.386;2022-08-24T14:07:46;38.45;;;11.65;;
21458;SDS011;10891;49.350;19.386;2022-08-24T14:10:27;42.80;;;10.30;;
21458;SDS011;10891;49.350;19.386;2022-08-24T14:13:05;35.30;;;9.32;;
21458;SDS011;10891;49.350;19.386;2022-08-24T14:15:48;45.40;;;10.55;;
21458;SDS011;10891;49.350;19.386;2022-08-24T14:18:47;45.35;;;11.82;;
21458;SDS011;10891;49.350;19.386;2022-08-24T14:21:22;44.55;;;11.88;;
21458;SDS011;10891;49.350;19.386;2022-08-24T14:24:01;55.92;;;12.13;;
21458;SDS011;10891;49.350;19.386;2022-08-24T14:33:04;55.17;;;14.60;;
21458;SDS011;10891;49.350;19.386;2022-08-24T14:35:38;56.33;;;12.57;;
21458;SDS011;10891;49.350;19.386;2022-08-24T14:38:15;40.30;;;13.18;;
21458;SDS011;10891;49.350;19.386;2022-08-24T14:41:06;54.60;;;14.05;;
21458;SDS011;10891;49.350;19.386;2022-08-24T14:43:52;42.53;;;12.43;;
21458;SDS011;10891;49.350;19.386;2022-08-24T14:46:37;54.83;;;14.27;;
21458;SDS011;10891;49.350;19.386;2022-08-24T14:49:13;44.58;;;11.85;;
21458;SDS011;10891;49.350;19.386;2022-08-24T14:54:59;42.75;;;13.25;;
21458;SDS011;10891;49.350;19.386;2022-08-24T14:57:41;50.03;;;13.23;;
21458;SDS011;10891;49.350;19.386;2022-08-24T15:00:17;61.92;;;14.27;;
21458;SDS011;10891;49.350;19.386;2022-08-24T15:06:01;47.47;;;12.80;;
21458;SDS011;10891;49.350;19.386;2022-08-24T15:08:37;51.10;;;15.55;;
21458;SDS011;10891;49.350;19.386;2022-08-24T15:11:08;75.05;;;15.70;;
21458;SDS011;10891;49.350;19.386;2022-08-24T15:13:40;66.82;;;15.60;;
21458;SDS011;10891;49.350;19.386;2022-08-24T15:16:15;63.78;;;15.45;;
21458;SDS011;10891;49.350;19.386;2022-08-24T15:18:47;57.88;;;14.82;;
21458;SDS011;10891;49.350;19.386;2022-08-24T15:21:25;50.15;;;15.15;;
21458;SDS011;10891;49.350;19.386;2022-08-24T15:24:02;64.40;;;14.68;;
21458;SDS011;10891;49.350;19.386;2022-08-24T15:26:45;55.78;;;14.90;;
21458;SDS011;10891;49.350;19.386;2022-08-24T15:29:21;59.40;;;14.35;;